sensor_id;sensor_type;location;lat;lon;timestamp;temperature;humidity
64937;SHT30;51452;47.698;19.050;2023-12-14T00:01:52;6.56;81.93
64937;SHT30;51452;47.698;19.050;2023-12-14T00:04:17;6.69;81.86
64937;SHT30;51452;47.698;19.050;2023-12-14T00:06:43;6.61;82.03
64937;SHT30;51452;47.698;19.050;2023-12-14T00:09:11;6.64;81.99
64937;SHT30;51452;47.698;19.050;2023-12-14T00:11:38;6.67;81.82
64937;SHT30;51452;47.698;19.050;2023-12-14T00:14:04;6.65;81.82
64937;SHT30;51452;47.698;19.050;2023-12-14T00:16:41;6.68;81.72
64937;SHT30;51452;47.698;19.050;2023-12-14T00:19:07;6.64;81.64
64937;SHT30;51452;47.698;19.050;2023-12-14T00:21:32;6.62;81.73
64937;SHT30;51452;47.698;19.050;2023-12-14T00:24:01;6.64;81.63
64937;SHT30;51452;47.698;19.050;2023-12-14T00:26:26;6.67;81.62
64937;SHT30;51452;47.698;19.050;2023-12-14T00:28:52;6.65;81.66
64937;SHT30;51452;47.698;19.050;2023-12-14T00:31:17;6.61;81.71
64937;SHT30;51452;47.698;19.050;2023-12-14T00:33:43;6.56;81.77
64937;SHT30;51452;47.698;19.050;2023-12-14T00:36:20;6.55;81.68
64937;SHT30;51452;47.698;19.050;2023-12-14T00:39:06;6.53;81.68
64937;SHT30;51452;47.698;19.050;2023-12-14T00:41:31;6.44;81.93
64937;SHT30;51452;47.698;19.050;2023-12-14T00:44:14;6.32;82.26
64937;SHT30;51452;47.698;19.050;2023-12-14T00:46:39;6.27;82.43
64937;SHT30;51452;47.698;19.050;2023-12-14T00:49:07;6.35;82.39
64937;SHT30;51452;47.698;19.050;2023-12-14T00:51:32;6.38;82.56
64937;SHT30;51452;47.698;19.050;2023-12-14T00:54:01;6.32;82.77
64937;SHT30;51452;47.698;19.050;2023-12-14T00:56:29;6.25;82.86
64937;SHT30;51452;47.698;19.050;2023-12-14T00:59:07;6.32;82.59
64937;SHT30;51452;47.698;19.050;2023-12-14T01:01:32;6.25;82.88
64937;SHT30;51452;47.698;19.050;2023-12-14T01:03:58;6.25;82.90
64937;SHT30;51452;47.698;19.050;2023-12-14T01:06:24;6.18;83.08
64937;SHT30;51452;47.698;19.050;2023-12-14T01:08:50;6.20;83.16
64937;SHT30;51452;47.698;19.050;2023-12-14T01:11:15;6.21;83.17
64937;SHT30;51452;47.698;19.050;2023-12-14T01:13:40;6.20;83.34
64937;SHT30;51452;47.698;19.050;2023-12-14T01:16:06;6.11;83.36
64937;SHT30;51452;47.698;19.050;2023-12-14T01:18:35;6.11;83.30
64937;SHT30;51452;47.698;19.050;2023-12-14T01:21:03;6.07;83.55
64937;SHT30;51452;47.698;19.050;2023-12-14T01:23:30;6.00;83.72
64937;SHT30;51452;47.698;19.050;2023-12-14T01:25:55;5.94;83.86
64937;SHT30;51452;47.698;19.050;2023-12-14T01:28:20;5.93;83.92
64937;SHT30;51452;47.698;19.050;2023-12-14T01:30:46;6.01;83.97
64937;SHT30;51452;47.698;19.050;2023-12-14T01:33:11;5.89;84.20
64937;SHT30;51452;47.698;19.050;2023-12-14T01:35:37;5.89;84.20
64937;SHT30;51452;47.698;19.050;2023-12-14T01:38:02;5.85;84.44
64937;SHT30;51452;47.698;19.050;2023-12-14T01:40:28;5.81;84.66
64937;SHT30;51452;47.698;19.050;2023-12-14T01:42:53;5.90;84.51
64937;SHT30;51452;47.698;19.050;2023-12-14T01:45:18;5.90;84.52
64937;SHT30;51452;47.698;19.050;2023-12-14T01:47:48;5.94;84.30
64937;SHT30;51452;47.698;19.050;2023-12-14T01:50:14;6.01;84.25
64937;SHT30;51452;47.698;19.050;2023-12-14T01:52:39;6.00;84.00
64937;SHT30;51452;47.698;19.050;2023-12-14T01:55:08;5.99;84.15
64937;SHT30;51452;47.698;19.050;2023-12-14T01:57:42;6.04;83.91
64937;SHT30;51452;47.698;19.050;2023-12-14T02:00:15;6.07;83.83
64937;SHT30;51452;47.698;19.050;2023-12-14T02:02:46;6.10;83.77
64937;SHT30;51452;47.698;19.050;2023-12-14T02:05:18;6.21;83.55
64937;SHT30;51452;47.698;19.050;2023-12-14T02:07:43;6.24;83.45
64937;SHT30;51452;47.698;19.050;2023-12-14T02:10:20;6.22;83.50
64937;SHT30;51452;47.698;19.050;2023-12-14T02:12:48;6.31;83.23
64937;SHT30;51452;47.698;19.050;2023-12-14T02:15:13;6.30;83.35
64937;SHT30;51452;47.698;19.050;2023-12-14T02:17:39;6.32;83.19
64937;SHT30;51452;47.698;19.050;2023-12-14T02:20:05;6.31;83.17
64937;SHT30;51452;47.698;19.050;2023-12-14T02:22:54;6.28;83.22
64937;SHT30;51452;47.698;19.050;2023-12-14T02:25:21;6.21;83.51
64937;SHT30;51452;47.698;19.050;2023-12-14T02:27:47;6.20;83.50
64937;SHT30;51452;47.698;19.050;2023-12-14T02:30:13;6.30;83.37
64937;SHT30;51452;47.698;19.050;2023-12-14T02:32:48;6.22;83.26
64937;SHT30;51452;47.698;19.050;2023-12-14T02:35:14;6.16;83.50
64937;SHT30;51452;47.698;19.050;2023-12-14T02:37:39;6.13;83.67
64937;SHT30;51452;47.698;19.050;2023-12-14T02:40:08;6.09;83.83
64937;SHT30;51452;47.698;19.050;2023-12-14T02:42:33;6.14;83.57
64937;SHT30;51452;47.698;19.050;2023-12-14T02:45:32;6.17;83.51
64937;SHT30;51452;47.698;19.050;2023-12-14T02:47:57;6.11;83.58
64937;SHT30;51452;47.698;19.050;2023-12-14T02:50:22;6.18;83.49
64937;SHT30;51452;47.698;19.050;2023-12-14T02:52:50;6.16;83.54
64937;SHT30;51452;47.698;19.050;2023-12-14T02:55:16;6.14;83.45
64937;SHT30;51452;47.698;19.050;2023-12-14T02:57:50;6.13;83.65
64937;SHT30;51452;47.698;19.050;2023-12-14T03:00:16;6.11;83.75
64937;SHT30;51452;47.698;19.050;2023-12-14T03:02:41;6.16;83.74
64937;SHT30;51452;47.698;19.050;2023-12-14T03:05:18;6.13;83.63
64937;SHT30;51452;47.698;19.050;2023-12-14T03:07:47;6.07;83.72
64937;SHT30;51452;47.698;19.050;2023-12-14T03:10:12;6.13;83.54
64937;SHT30;51452;47.698;19.050;2023-12-14T03:12:41;6.06;83.66
64937;SHT30;51452;47.698;19.050;2023-12-14T03:15:10;6.01;83.90
64937;SHT30;51452;47.698;19.050;2023-12-14T03:17:35;5.96;84.02
64937;SHT30;51452;47.698;19.050;2023-12-14T03:20:01;5.94;84.19
64937;SHT30;51452;47.698;19.050;2023-12-14T03:22:28;5.99;84.01
64937;SHT30;51452;47.698;19.050;2023-12-14T03:24:53;5.96;84.05
64937;SHT30;51452;47.698;19.050;2023-12-14T03:27:19;5.91;83.97
64937;SHT30;51452;47.698;19.050;2023-12-14T03:29:45;5.97;83.98
64937;SHT30;51452;47.698;19.050;2023-12-14T03:32:20;5.96;83.78
64937;SHT30;51452;47.698;19.050;2023-12-14T03:34:46;6.01;83.77
64937;SHT30;51452;47.698;19.050;2023-12-14T03:37:16;6.01;83.79
64937;SHT30;51452;47.698;19.050;2023-12-14T03:39:42;6.00;83.85
64937;SHT30;51452;47.698;19.050;2023-12-14T03:42:10;5.99;83.81
64937;SHT30;51452;47.698;19.050;2023-12-14T03:44:36;6.01;83.85
64937;SHT30;51452;47.698;19.050;2023-12-14T03:47:02;6.11;83.62
64937;SHT30;51452;47.698;19.050;2023-12-14T03:49:30;5.96;83.84
64937;SHT30;51452;47.698;19.050;2023-12-14T03:51:55;5.87;84.06
64937;SHT30;51452;47.698;19.050;2023-12-14T03:54:22;6.04;83.96
64937;SHT30;51452;47.698;19.050;2023-12-14T03:56:47;5.97;84.01
64937;SHT30;51452;47.698;19.050;2023-12-14T03:59:15;5.99;83.93
64937;SHT30;51452;47.698;19.050;2023-12-14T04:01:44;6.04;83.87
64937;SHT30;51452;47.698;19.050;2023-12-14T04:04:09;6.09;83.63
64937;SHT30;51452;47.698;19.050;2023-12-14T04:06:34;6.09;83.48
64937;SHT30;51452;47.698;19.050;2023-12-14T04:09:03;5.96;83.90
64937;SHT30;51452;47.698;19.050;2023-12-14T04:11:28;5.94;83.88
64937;SHT30;51452;47.698;19.050;2023-12-14T04:13:57;5.97;83.72
64937;SHT30;51452;47.698;19.050;2023-12-14T04:16:43;6.04;83.63
64937;SHT30;51452;47.698;19.050;2023-12-14T04:19:08;6.06;83.51
64937;SHT30;51452;47.698;19.050;2023-12-14T04:21:44;6.04;83.40
64937;SHT30;51452;47.698;19.050;2023-12-14T04:24:16;6.06;83.48
64937;SHT30;51452;47.698;19.050;2023-12-14T04:26:41;6.03;83.68
64937;SHT30;51452;47.698;19.050;2023-12-14T04:29:07;6.01;83.73
64937;SHT30;51452;47.698;19.050;2023-12-14T04:31:34;5.90;84.06
64937;SHT30;51452;47.698;19.050;2023-12-14T04:34:04;5.99;83.78
64937;SHT30;51452;47.698;19.050;2023-12-14T04:36:30;5.89;84.10
64937;SHT30;51452;47.698;19.050;2023-12-14T04:39:06;5.90;84.01
64937;SHT30;51452;47.698;19.050;2023-12-14T04:41:38;5.81;84.41
64937;SHT30;51452;47.698;19.050;2023-12-14T04:44:12;5.83;84.34
64937;SHT30;51452;47.698;19.050;2023-12-14T04:46:38;5.83;84.26
64937;SHT30;51452;47.698;19.050;2023-12-14T04:49:04;5.83;84.22
64937;SHT30;51452;47.698;19.050;2023-12-14T04:51:29;5.99;83.72
64937;SHT30;51452;47.698;19.050;2023-12-14T04:53:54;6.04;83.40
64937;SHT30;51452;47.698;19.050;2023-12-14T04:56:40;6.06;83.21
64937;SHT30;51452;47.698;19.050;2023-12-14T04:59:07;6.21;82.85
64937;SHT30;51452;47.698;19.050;2023-12-14T05:01:32;6.11;82.75
64937;SHT30;51452;47.698;19.050;2023-12-14T05:04:01;6.20;82.72
64937;SHT30;51452;47.698;19.050;2023-12-14T05:06:26;6.28;82.49
64937;SHT30;51452;47.698;19.050;2023-12-14T05:08:51;6.31;82.46
64937;SHT30;51452;47.698;19.050;2023-12-14T05:11:17;6.32;82.42
64937;SHT30;51452;47.698;19.050;2023-12-14T05:13:42;6.38;82.22
64937;SHT30;51452;47.698;19.050;2023-12-14T05:16:13;6.40;82.11
64937;SHT30;51452;47.698;19.050;2023-12-14T05:18:39;6.32;82.19
64937;SHT30;51452;47.698;19.050;2023-12-14T05:21:05;6.37;82.20
64937;SHT30;51452;47.698;19.050;2023-12-14T05:23:30;6.22;82.40
64937;SHT30;51452;47.698;19.050;2023-12-14T05:26:04;6.16;82.50
64937;SHT30;51452;47.698;19.050;2023-12-14T05:28:33;6.10;82.56
64937;SHT30;51452;47.698;19.050;2023-12-14T05:30:58;6.17;82.56
64937;SHT30;51452;47.698;19.050;2023-12-14T05:33:24;6.13;82.47
64937;SHT30;51452;47.698;19.050;2023-12-14T05:35:58;6.13;82.46
64937;SHT30;51452;47.698;19.050;2023-12-14T05:38:23;6.10;82.64
64937;SHT30;51452;47.698;19.050;2023-12-14T05:40:52;6.10;82.65
64937;SHT30;51452;47.698;19.050;2023-12-14T05:43:17;6.04;82.92
64937;SHT30;51452;47.698;19.050;2023-12-14T05:46:26;5.89;83.45
64937;SHT30;51452;47.698;19.050;2023-12-14T05:48:50;5.86;83.51
64937;SHT30;51452;47.698;19.050;2023-12-14T05:51:32;5.80;83.61
64937;SHT30;51452;47.698;19.050;2023-12-14T05:54:05;5.86;83.63
64937;SHT30;51452;47.698;19.050;2023-12-14T05:56:33;5.89;83.44
64937;SHT30;51452;47.698;19.050;2023-12-14T05:58:59;5.85;83.55
64937;SHT30;51452;47.698;19.050;2023-12-14T06:01:24;5.86;83.45
64937;SHT30;51452;47.698;19.050;2023-12-14T06:03:50;5.90;83.41
64937;SHT30;51452;47.698;19.050;2023-12-14T06:06:15;5.91;83.29
64937;SHT30;51452;47.698;19.050;2023-12-14T06:08:41;5.89;83.38
64937;SHT30;51452;47.698;19.050;2023-12-14T06:11:07;5.87;83.29
64937;SHT30;51452;47.698;19.050;2023-12-14T06:13:33;5.85;83.42
64937;SHT30;51452;47.698;19.050;2023-12-14T06:16:01;5.91;83.23
64937;SHT30;51452;47.698;19.050;2023-12-14T06:18:27;5.90;83.15
64937;SHT30;51452;47.698;19.050;2023-12-14T06:20:53;5.89;83.04
64937;SHT30;51452;47.698;19.050;2023-12-14T06:23:18;5.90;82.99
64937;SHT30;51452;47.698;19.050;2023-12-14T06:25:47;5.99;82.64
64937;SHT30;51452;47.698;19.050;2023-12-14T06:28:12;5.94;82.61
64937;SHT30;51452;47.698;19.050;2023-12-14T06:30:38;6.04;82.39
64937;SHT30;51452;47.698;19.050;2023-12-14T06:33:03;6.07;82.38
64937;SHT30;51452;47.698;19.050;2023-12-14T06:35:28;6.01;82.25
64937;SHT30;51452;47.698;19.050;2023-12-14T06:37:54;6.04;82.18
64937;SHT30;51452;47.698;19.050;2023-12-14T06:40:19;6.07;82.16
64937;SHT30;51452;47.698;19.050;2023-12-14T06:42:47;6.06;82.21
64937;SHT30;51452;47.698;19.050;2023-12-14T06:45:17;6.10;82.02
64937;SHT30;51452;47.698;19.050;2023-12-14T06:47:43;6.13;81.97
64937;SHT30;51452;47.698;19.050;2023-12-14T06:50:11;6.03;82.20
64937;SHT30;51452;47.698;19.050;2023-12-14T06:52:41;6.03;82.24
64937;SHT30;51452;47.698;19.050;2023-12-14T06:55:12;6.07;82.26
64937;SHT30;51452;47.698;19.050;2023-12-14T06:57:42;6.04;82.16
64937;SHT30;51452;47.698;19.050;2023-12-14T07:00:08;6.00;82.39
64937;SHT30;51452;47.698;19.050;2023-12-14T07:02:37;6.03;82.30
64937;SHT30;51452;47.698;19.050;2023-12-14T07:08:42;6.00;82.51
64937;SHT30;51452;47.698;19.050;2023-12-14T07:11:21;5.96;82.74
64937;SHT30;51452;47.698;19.050;2023-12-14T07:13:59;5.93;82.76
64937;SHT30;51452;47.698;19.050;2023-12-14T07:16:29;5.97;82.71
64937;SHT30;51452;47.698;19.050;2023-12-14T07:18:54;6.03;82.57
64937;SHT30;51452;47.698;19.050;2023-12-14T07:21:20;5.99;82.80
64937;SHT30;51452;47.698;19.050;2023-12-14T07:23:47;5.94;82.77
64937;SHT30;51452;47.698;19.050;2023-12-14T07:26:13;5.97;82.85
64937;SHT30;51452;47.698;19.050;2023-12-14T07:28:38;5.94;82.83
64937;SHT30;51452;47.698;19.050;2023-12-14T07:31:04;5.81;83.27
64937;SHT30;51452;47.698;19.050;2023-12-14T07:33:29;5.97;82.99
64937;SHT30;51452;47.698;19.050;2023-12-14T07:35:58;5.96;83.08
64937;SHT30;51452;47.698;19.050;2023-12-14T07:38:35;5.94;83.05
64937;SHT30;51452;47.698;19.050;2023-12-14T07:41:00;5.99;82.92
64937;SHT30;51452;47.698;19.050;2023-12-14T07:43:26;6.00;82.91
64937;SHT30;51452;47.698;19.050;2023-12-14T07:45:51;6.03;83.02
64937;SHT30;51452;47.698;19.050;2023-12-14T07:48:19;6.06;83.00
64937;SHT30;51452;47.698;19.050;2023-12-14T07:50:50;6.06;83.04
64937;SHT30;51452;47.698;19.050;2023-12-14T07:53:17;6.00;82.96
64937;SHT30;51452;47.698;19.050;2023-12-14T07:55:42;6.04;82.97
64937;SHT30;51452;47.698;19.050;2023-12-14T07:58:07;6.03;82.94
64937;SHT30;51452;47.698;19.050;2023-12-14T08:00:33;6.11;82.67
64937;SHT30;51452;47.698;19.050;2023-12-14T08:02:58;6.06;82.82
64937;SHT30;51452;47.698;19.050;2023-12-14T08:05:27;6.10;82.72
64937;SHT30;51452;47.698;19.050;2023-12-14T08:07:52;6.07;82.66
64937;SHT30;51452;47.698;19.050;2023-12-14T08:10:18;6.03;82.80
64937;SHT30;51452;47.698;19.050;2023-12-14T08:12:44;6.11;82.79
64937;SHT30;51452;47.698;19.050;2023-12-14T08:15:10;6.11;82.57
64937;SHT30;51452;47.698;19.050;2023-12-14T08:17:37;6.10;82.67
64937;SHT30;51452;47.698;19.050;2023-12-14T08:20:06;6.06;82.71
64937;SHT30;51452;47.698;19.050;2023-12-14T08:22:45;6.04;82.72
64937;SHT30;51452;47.698;19.050;2023-12-14T08:25:12;6.10;82.59
64937;SHT30;51452;47.698;19.050;2023-12-14T08:27:42;6.17;82.42
64937;SHT30;51452;47.698;19.050;2023-12-14T08:30:11;6.11;82.40
64937;SHT30;51452;47.698;19.050;2023-12-14T08:32:36;6.10;82.46
64937;SHT30;51452;47.698;19.050;2023-12-14T08:35:02;6.18;82.37
64937;SHT30;51452;47.698;19.050;2023-12-14T08:37:31;6.06;82.52
64937;SHT30;51452;47.698;19.050;2023-12-14T08:39:56;6.16;82.33
64937;SHT30;51452;47.698;19.050;2023-12-14T08:42:28;6.21;82.10
64937;SHT30;51452;47.698;19.050;2023-12-14T08:44:56;6.27;81.76
64937;SHT30;51452;47.698;19.050;2023-12-14T08:47:22;6.31;81.58
64937;SHT30;51452;47.698;19.050;2023-12-14T08:49:47;6.37;81.35
64937;SHT30;51452;47.698;19.050;2023-12-14T08:52:22;6.44;81.10
64937;SHT30;51452;47.698;19.050;2023-12-14T08:54:48;6.35;81.14
64937;SHT30;51452;47.698;19.050;2023-12-14T08:57:13;6.41;81.07
64937;SHT30;51452;47.698;19.050;2023-12-14T08:59:42;6.45;80.98
64937;SHT30;51452;47.698;19.050;2023-12-14T09:02:07;6.49;80.83
64937;SHT30;51452;47.698;19.050;2023-12-14T09:04:33;6.49;80.89
64937;SHT30;51452;47.698;19.050;2023-12-14T09:07:09;6.49;80.72
64937;SHT30;51452;47.698;19.050;2023-12-14T09:09:41;6.51;80.62
64937;SHT30;51452;47.698;19.050;2023-12-14T09:12:09;6.61;80.35
64937;SHT30;51452;47.698;19.050;2023-12-14T09:14:35;6.67;80.30
64937;SHT30;51452;47.698;19.050;2023-12-14T09:17:01;6.81;80.09
64937;SHT30;51452;47.698;19.050;2023-12-14T09:19:28;6.83;79.55
64937;SHT30;51452;47.698;19.050;2023-12-14T09:21:54;7.00;79.47
64937;SHT30;51452;47.698;19.050;2023-12-14T09:24:19;7.02;79.18
64937;SHT30;51452;47.698;19.050;2023-12-14T09:26:45;7.13;79.36
64937;SHT30;51452;47.698;19.050;2023-12-14T09:29:25;7.17;78.73
64937;SHT30;51452;47.698;19.050;2023-12-14T09:31:50;7.24;78.81
64937;SHT30;51452;47.698;19.050;2023-12-14T09:34:19;7.31;78.69
64937;SHT30;51452;47.698;19.050;2023-12-14T09:36:47;7.38;78.64
64937;SHT30;51452;47.698;19.050;2023-12-14T09:39:13;7.43;78.46
64937;SHT30;51452;47.698;19.050;2023-12-14T09:41:43;7.27;77.85
64937;SHT30;51452;47.698;19.050;2023-12-14T09:44:12;7.38;77.95
64937;SHT30;51452;47.698;19.050;2023-12-14T09:46:38;7.35;78.24
64937;SHT30;51452;47.698;19.050;2023-12-14T09:49:04;7.46;78.37
64937;SHT30;51452;47.698;19.050;2023-12-14T09:51:30;7.51;78.42
64937;SHT30;51452;47.698;19.050;2023-12-14T09:53:59;7.54;77.63
64937;SHT30;51452;47.698;19.050;2023-12-14T09:56:25;7.65;77.19
64937;SHT30;51452;47.698;19.050;2023-12-14T09:59:03;7.68;77.55
64937;SHT30;51452;47.698;19.050;2023-12-14T10:01:30;7.70;77.35
64937;SHT30;51452;47.698;19.050;2023-12-14T10:04:17;7.55;77.05
64937;SHT30;51452;47.698;19.050;2023-12-14T10:06:45;7.64;77.48
64937;SHT30;51452;47.698;19.050;2023-12-14T10:09:11;7.67;77.33
64937;SHT30;51452;47.698;19.050;2023-12-14T10:12:05;7.62;77.36
64937;SHT30;51452;47.698;19.050;2023-12-14T10:14:31;7.58;77.35
64937;SHT30;51452;47.698;19.050;2023-12-14T10:17:19;7.64;77.37
64937;SHT30;51452;47.698;19.050;2023-12-14T10:20:05;7.64;77.60
64937;SHT30;51452;47.698;19.050;2023-12-14T10:22:34;7.62;77.49
64937;SHT30;51452;47.698;19.050;2023-12-14T10:25:06;7.67;77.53
64937;SHT30;51452;47.698;19.050;2023-12-14T10:27:34;7.72;78.02
64937;SHT30;51452;47.698;19.050;2023-12-14T10:30:05;7.81;78.13
64937;SHT30;51452;47.698;19.050;2023-12-14T10:32:31;7.86;77.31
64937;SHT30;51452;47.698;19.050;2023-12-14T10:35:07;7.79;77.26
64937;SHT30;51452;47.698;19.050;2023-12-14T10:37:37;7.75;77.45
64937;SHT30;51452;47.698;19.050;2023-12-14T10:40:05;7.88;77.46
64937;SHT30;51452;47.698;19.050;2023-12-14T10:42:34;7.83;77.31
64937;SHT30;51452;47.698;19.050;2023-12-14T10:45:02;7.86;77.33
64937;SHT30;51452;47.698;19.050;2023-12-14T10:47:32;7.88;77.35
64937;SHT30;51452;47.698;19.050;2023-12-14T10:50:00;7.86;77.37
64937;SHT30;51452;47.698;19.050;2023-12-14T10:52:29;7.98;77.22
64937;SHT30;51452;47.698;19.050;2023-12-14T10:55:18;7.91;76.92
64937;SHT30;51452;47.698;19.050;2023-12-14T10:57:46;8.03;77.04
64937;SHT30;51452;47.698;19.050;2023-12-14T11:00:12;8.14;77.03
64937;SHT30;51452;47.698;19.050;2023-12-14T11:02:45;8.06;76.97
64937;SHT30;51452;47.698;19.050;2023-12-14T11:05:17;8.09;77.01
64937;SHT30;51452;47.698;19.050;2023-12-14T11:10:21;7.99;77.53
64937;SHT30;51452;47.698;19.050;2023-12-14T11:13:05;7.91;77.33
64937;SHT30;51452;47.698;19.050;2023-12-14T11:15:51;7.93;77.91
64937;SHT30;51452;47.698;19.050;2023-12-14T11:21:00;7.83;77.36
64937;SHT30;51452;47.698;19.050;2023-12-14T11:23:27;7.77;77.68
64937;SHT30;51452;47.698;19.050;2023-12-14T11:25:57;7.67;77.93
64937;SHT30;51452;47.698;19.050;2023-12-14T11:28:27;7.67;78.02
64937;SHT30;51452;47.698;19.050;2023-12-14T11:30:52;7.64;78.28
64937;SHT30;51452;47.698;19.050;2023-12-14T11:33:24;7.60;78.39
64937;SHT30;51452;47.698;19.050;2023-12-14T11:35:57;7.62;78.43
64937;SHT30;51452;47.698;19.050;2023-12-14T11:38:24;7.65;78.23
64937;SHT30;51452;47.698;19.050;2023-12-14T11:40:55;7.61;78.65
64937;SHT30;51452;47.698;19.050;2023-12-14T11:43:20;7.62;78.33
64937;SHT30;51452;47.698;19.050;2023-12-14T11:45:49;7.65;78.08
64937;SHT30;51452;47.698;19.050;2023-12-14T11:48:15;7.52;78.34
64937;SHT30;51452;47.698;19.050;2023-12-14T11:50:49;7.55;78.50
64937;SHT30;51452;47.698;19.050;2023-12-14T11:53:25;7.57;78.59
64937;SHT30;51452;47.698;19.050;2023-12-14T11:55:59;7.52;78.86
64937;SHT30;51452;47.698;19.050;2023-12-14T11:58:34;7.54;78.63
64937;SHT30;51452;47.698;19.050;2023-12-14T12:01:13;7.57;78.85
64937;SHT30;51452;47.698;19.050;2023-12-14T12:03:38;7.67;78.73
64937;SHT30;51452;47.698;19.050;2023-12-14T12:06:25;7.58;78.90
64937;SHT30;51452;47.698;19.050;2023-12-14T12:09:00;7.52;78.60
64937;SHT30;51452;47.698;19.050;2023-12-14T12:11:26;7.65;78.57
64937;SHT30;51452;47.698;19.050;2023-12-14T12:13:56;7.65;78.66
64937;SHT30;51452;47.698;19.050;2023-12-14T12:16:22;7.71;78.79
64937;SHT30;51452;47.698;19.050;2023-12-14T12:18:48;7.81;78.46
64937;SHT30;51452;47.698;19.050;2023-12-14T12:21:15;7.79;78.27
64937;SHT30;51452;47.698;19.050;2023-12-14T12:23:42;8.01;78.01
64937;SHT30;51452;47.698;19.050;2023-12-14T12:26:10;8.06;77.51
64937;SHT30;51452;47.698;19.050;2023-12-14T12:28:38;8.12;78.04
64937;SHT30;51452;47.698;19.050;2023-12-14T12:31:04;8.07;77.70
64937;SHT30;51452;47.698;19.050;2023-12-14T12:33:32;8.17;77.38
64937;SHT30;51452;47.698;19.050;2023-12-14T12:36:03;8.22;77.27
64937;SHT30;51452;47.698;19.050;2023-12-14T12:38:38;8.32;77.32
64937;SHT30;51452;47.698;19.050;2023-12-14T12:41:05;8.42;76.84
64937;SHT30;51452;47.698;19.050;2023-12-14T12:43:30;8.40;76.83
64937;SHT30;51452;47.698;19.050;2023-12-14T12:46:01;8.42;76.87
64937;SHT30;51452;47.698;19.050;2023-12-14T12:48:27;8.34;76.86
64937;SHT30;51452;47.698;19.050;2023-12-14T12:50:52;8.40;76.95
64937;SHT30;51452;47.698;19.050;2023-12-14T12:53:18;8.39;76.88
64937;SHT30;51452;47.698;19.050;2023-12-14T12:55:46;8.40;76.39
64937;SHT30;51452;47.698;19.050;2023-12-14T12:58:18;8.49;76.88
64937;SHT30;51452;47.698;19.050;2023-12-14T13:00:47;8.56;76.89
64937;SHT30;51452;47.698;19.050;2023-12-14T13:03:33;8.49;76.26
64937;SHT30;51452;47.698;19.050;2023-12-14T13:06:01;8.60;76.42
64937;SHT30;51452;47.698;19.050;2023-12-14T13:08:27;8.64;76.83
64937;SHT30;51452;47.698;19.050;2023-12-14T13:10:52;8.59;76.10
64937;SHT30;51452;47.698;19.050;2023-12-14T13:13:18;8.60;76.48
64937;SHT30;51452;47.698;19.050;2023-12-14T13:15:44;8.54;76.57
64937;SHT30;51452;47.698;19.050;2023-12-14T13:18:09;8.59;76.21
64937;SHT30;51452;47.698;19.050;2023-12-14T13:20:38;8.49;76.80
64937;SHT30;51452;47.698;19.050;2023-12-14T13:23:04;8.39;76.54
64937;SHT30;51452;47.698;19.050;2023-12-14T13:25:29;8.30;76.70
64937;SHT30;51452;47.698;19.050;2023-12-14T13:27:58;8.25;76.77
64937;SHT30;51452;47.698;19.050;2023-12-14T13:30:23;8.19;77.19
64937;SHT30;51452;47.698;19.050;2023-12-14T13:32:52;8.21;77.18
64937;SHT30;51452;47.698;19.050;2023-12-14T13:35:20;8.21;77.15
64937;SHT30;51452;47.698;19.050;2023-12-14T13:37:53;8.23;76.83
64937;SHT30;51452;47.698;19.050;2023-12-14T13:40:19;8.05;77.23
64937;SHT30;51452;47.698;19.050;2023-12-14T13:42:47;8.12;77.10
64937;SHT30;51452;47.698;19.050;2023-12-14T13:45:25;8.06;77.10
64937;SHT30;51452;47.698;19.050;2023-12-14T13:47:51;8.14;77.08
64937;SHT30;51452;47.698;19.050;2023-12-14T13:50:16;8.28;76.80
64937;SHT30;51452;47.698;19.050;2023-12-14T13:52:43;8.37;76.69
64937;SHT30;51452;47.698;19.050;2023-12-14T13:55:08;8.34;76.73
64937;SHT30;51452;47.698;19.050;2023-12-14T13:57:34;8.36;76.35
64937;SHT30;51452;47.698;19.050;2023-12-14T13:59:59;8.34;76.35
64937;SHT30;51452;47.698;19.050;2023-12-14T14:02:25;8.29;76.93
64937;SHT30;51452;47.698;19.050;2023-12-14T14:04:52;8.33;76.83
64937;SHT30;51452;47.698;19.050;2023-12-14T14:07:20;8.30;76.51
64937;SHT30;51452;47.698;19.050;2023-12-14T14:09:47;8.17;76.48
64937;SHT30;51452;47.698;19.050;2023-12-14T14:12:17;8.12;76.66
64937;SHT30;51452;47.698;19.050;2023-12-14T14:14:48;8.21;76.60
64937;SHT30;51452;47.698;19.050;2023-12-14T14:17:15;8.22;76.71
64937;SHT30;51452;47.698;19.050;2023-12-14T14:19:46;8.13;76.79
64937;SHT30;51452;47.698;19.050;2023-12-14T14:22:22;8.21;77.00
64937;SHT30;51452;47.698;19.050;2023-12-14T14:24:47;8.14;76.83
64937;SHT30;51452;47.698;19.050;2023-12-14T14:27:22;8.13;76.80
64937;SHT30;51452;47.698;19.050;2023-12-14T14:29:57;8.13;76.87
64937;SHT30;51452;47.698;19.050;2023-12-14T14:32:25;8.05;77.01
64937;SHT30;51452;47.698;19.050;2023-12-14T14:34:57;8.02;77.14
64937;SHT30;51452;47.698;19.050;2023-12-14T14:37:24;8.07;77.24
64937;SHT30;51452;47.698;19.050;2023-12-14T14:40:05;8.01;77.23
64937;SHT30;51452;47.698;19.050;2023-12-14T14:42:34;7.99;77.25
64937;SHT30;51452;47.698;19.050;2023-12-14T14:45:12;8.03;77.14
64937;SHT30;51452;47.698;19.050;2023-12-14T14:47:40;8.10;77.13
64937;SHT30;51452;47.698;19.050;2023-12-14T14:50:09;8.07;77.25
64937;SHT30;51452;47.698;19.050;2023-12-14T14:52:35;8.01;77.00
64937;SHT30;51452;47.698;19.050;2023-12-14T14:55:00;8.09;76.83
64937;SHT30;51452;47.698;19.050;2023-12-14T14:57:26;8.09;76.71
64937;SHT30;51452;47.698;19.050;2023-12-14T14:59:52;8.01;76.98
64937;SHT30;51452;47.698;19.050;2023-12-14T15:02:18;8.01;76.73
64937;SHT30;51452;47.698;19.050;2023-12-14T15:04:43;7.96;76.88
64937;SHT30;51452;47.698;19.050;2023-12-14T15:07:08;7.98;76.87
64937;SHT30;51452;47.698;19.050;2023-12-14T15:09:34;8.01;76.99
64937;SHT30;51452;47.698;19.050;2023-12-14T15:12:25;7.95;77.05
64937;SHT30;51452;47.698;19.050;2023-12-14T15:14:54;8.05;77.01
64937;SHT30;51452;47.698;19.050;2023-12-14T15:17:21;8.01;77.27
64937;SHT30;51452;47.698;19.050;2023-12-14T15:19:56;7.99;77.19
64937;SHT30;51452;47.698;19.050;2023-12-14T15:22:22;7.92;77.40
64937;SHT30;51452;47.698;19.050;2023-12-14T15:24:49;7.88;77.57
64937;SHT30;51452;47.698;19.050;2023-12-14T15:27:15;7.83;77.45
64937;SHT30;51452;47.698;19.050;2023-12-14T15:29:40;7.85;77.63
64937;SHT30;51452;47.698;19.050;2023-12-14T15:32:09;7.81;77.57
64937;SHT30;51452;47.698;19.050;2023-12-14T15:34:34;7.75;77.67
64937;SHT30;51452;47.698;19.050;2023-12-14T15:37:00;7.82;77.56
64937;SHT30;51452;47.698;19.050;2023-12-14T15:39:25;7.72;77.60
64937;SHT30;51452;47.698;19.050;2023-12-14T15:41:51;7.75;77.60
64937;SHT30;51452;47.698;19.050;2023-12-14T15:44:16;7.77;77.22
64937;SHT30;51452;47.698;19.050;2023-12-14T15:46:42;7.81;77.31
64937;SHT30;51452;47.698;19.050;2023-12-14T15:49:07;7.75;77.21